sensor_id;sensor_type;location;lat;lon;timestamp;P1;durP1;ratioP1;P2;durP2;ratioP2
67889;SDS011;54685;52.082;5.426;2023-08-30T00:01:04;8.05;;;7.13;;
67889;SDS011;54685;52.082;5.426;2023-08-30T00:03:31;9.23;;;7.30;;
67889;SDS011;54685;52.082;5.426;2023-08-30T00:06:02;8.63;;;7.25;;
67889;SDS011;54685;52.082;5.426;2023-08-30T00:08:32;9.05;;;7.63;;
67889;SDS011;54685;52.082;5.426;2023-08-30T00:11:00;8.05;;;7.22;;
67889;SDS011;54685;52.082;5.426;2023-08-30T00:13:31;9.38;;;7.35;;
67889;SDS011;54685;52.082;5.426;2023-08-30T00:15:59;9.55;;;7.47;;
67889;SDS011;54685;52.082;5.426;2023-08-30T00:18:28;10.57;;;7.93;;
67889;SDS011;54685;52.082;5.426;2023-08-30T00:20:56;8.25;;;7.43;;
67889;SDS011;54685;52.082;5.426;2023-08-30T00:23:23;8.63;;;7.22;;
67889;SDS011;54685;52.082;5.426;2023-08-30T00:25:50;10.27;;;6.90;;
67889;SDS011;54685;52.082;5.426;2023-08-30T00:28:17;9.23;;;7.05;;
67889;SDS011;54685;52.082;5.426;2023-08-30T00:30:44;7.50;;;6.75;;
67889;SDS011;54685;52.082;5.426;2023-08-30T00:33:11;9.10;;;7.70;;
67889;SDS011;54685;52.082;5.426;2023-08-30T00:35:38;9.55;;;7.30;;
67889;SDS011;54685;52.082;5.426;2023-08-30T00:38:04;8.43;;;6.90;;
67889;SDS011;54685;52.082;5.426;2023-08-30T00:40:37;8.88;;;7.90;;
67889;SDS011;54685;52.082;5.426;2023-08-30T00:43:06;8.85;;;7.10;;
67889;SDS011;54685;52.082;5.426;2023-08-30T00:45:35;10.73;;;7.88;;
67889;SDS011;54685;52.082;5.426;2023-08-30T00:48:06;8.75;;;7.22;;
67889;SDS011;54685;52.082;5.426;2023-08-30T00:50:34;9.70;;;7.40;;
67889;SDS011;54685;52.082;5.426;2023-08-30T00:53:02;8.10;;;7.30;;
67889;SDS011;54685;52.082;5.426;2023-08-30T00:55:32;9.57;;;7.20;;
67889;SDS011;54685;52.082;5.426;2023-08-30T00:58:04;8.73;;;6.90;;
67889;SDS011;54685;52.082;5.426;2023-08-30T01:00:33;10.85;;;7.63;;
67889;SDS011;54685;52.082;5.426;2023-08-30T01:03:01;7.55;;;6.80;;
67889;SDS011;54685;52.082;5.426;2023-08-30T01:05:29;9.82;;;6.95;;
67889;SDS011;54685;52.082;5.426;2023-08-30T01:07:56;7.78;;;6.65;;
67889;SDS011;54685;52.082;5.426;2023-08-30T01:10:47;9.40;;;6.90;;
67889;SDS011;54685;52.082;5.426;2023-08-30T01:13:19;10.48;;;6.40;;
67889;SDS011;54685;52.082;5.426;2023-08-30T01:15:47;8.93;;;6.82;;
67889;SDS011;54685;52.082;5.426;2023-08-30T01:18:17;8.20;;;6.97;;
67889;SDS011;54685;52.082;5.426;2023-08-30T01:20:45;8.27;;;6.53;;
67889;SDS011;54685;52.082;5.426;2023-08-30T01:26:09;7.57;;;6.57;;
67889;SDS011;54685;52.082;5.426;2023-08-30T01:28:41;7.65;;;6.43;;
67889;SDS011;54685;52.082;5.426;2023-08-30T01:31:08;6.88;;;6.28;;
67889;SDS011;54685;52.082;5.426;2023-08-30T01:33:36;8.63;;;7.10;;
67889;SDS011;54685;52.082;5.426;2023-08-30T01:36:04;7.53;;;6.55;;
67889;SDS011;54685;52.082;5.426;2023-08-30T01:38:32;7.53;;;6.78;;
67889;SDS011;54685;52.082;5.426;2023-08-30T01:41:00;8.65;;;6.60;;
67889;SDS011;54685;52.082;5.426;2023-08-30T01:43:29;9.48;;;6.15;;
67889;SDS011;54685;52.082;5.426;2023-08-30T01:45:57;7.30;;;6.60;;
67889;SDS011;54685;52.082;5.426;2023-08-30T01:48:27;9.85;;;6.95;;
67889;SDS011;54685;52.082;5.426;2023-08-30T01:50:55;7.20;;;6.50;;
67889;SDS011;54685;52.082;5.426;2023-08-30T01:53:25;8.82;;;6.78;;
67889;SDS011;54685;52.082;5.426;2023-08-30T01:55:54;9.55;;;7.22;;
67889;SDS011;54685;52.082;5.426;2023-08-30T01:58:21;7.15;;;6.40;;
67889;SDS011;54685;52.082;5.426;2023-08-30T02:00:48;9.40;;;7.13;;
67889;SDS011;54685;52.082;5.426;2023-08-30T02:03:15;10.88;;;7.40;;
67889;SDS011;54685;52.082;5.426;2023-08-30T02:05:44;8.63;;;6.90;;
67889;SDS011;54685;52.082;5.426;2023-08-30T02:08:20;9.40;;;7.05;;
67889;SDS011;54685;52.082;5.426;2023-08-30T02:10:53;8.13;;;7.30;;
67889;SDS011;54685;52.082;5.426;2023-08-30T02:13:27;8.35;;;6.60;;
67889;SDS011;54685;52.082;5.426;2023-08-30T02:15:56;10.30;;;7.32;;
67889;SDS011;54685;52.082;5.426;2023-08-30T02:18:26;10.90;;;7.53;;
67889;SDS011;54685;52.082;5.426;2023-08-30T02:20:56;10.38;;;7.85;;
67889;SDS011;54685;52.082;5.426;2023-08-30T02:23:23;15.95;;;8.07;;
67889;SDS011;54685;52.082;5.426;2023-08-30T02:25:54;10.27;;;8.77;;
67889;SDS011;54685;52.082;5.426;2023-08-30T02:28:21;11.70;;;8.63;;
67889;SDS011;54685;52.082;5.426;2023-08-30T02:30:49;9.32;;;8.30;;
67889;SDS011;54685;52.082;5.426;2023-08-30T02:33:21;11.27;;;8.85;;
67889;SDS011;54685;52.082;5.426;2023-08-30T02:35:48;10.75;;;8.70;;
67889;SDS011;54685;52.082;5.426;2023-08-30T02:38:14;11.25;;;8.45;;
67889;SDS011;54685;52.082;5.426;2023-08-30T02:40:41;11.57;;;8.57;;
67889;SDS011;54685;52.082;5.426;2023-08-30T02:43:08;9.57;;;8.57;;
67889;SDS011;54685;52.082;5.426;2023-08-30T02:45:36;11.73;;;8.60;;
67889;SDS011;54685;52.082;5.426;2023-08-30T02:48:03;14.45;;;8.77;;
67889;SDS011;54685;52.082;5.426;2023-08-30T02:50:30;10.88;;;8.55;;
67889;SDS011;54685;52.082;5.426;2023-08-30T02:52:57;10.77;;;8.55;;
67889;SDS011;54685;52.082;5.426;2023-08-30T02:55:24;9.65;;;8.35;;
67889;SDS011;54685;52.082;5.426;2023-08-30T02:57:51;10.95;;;9.60;;
67889;SDS011;54685;52.082;5.426;2023-08-30T03:00:18;11.45;;;9.30;;
67889;SDS011;54685;52.082;5.426;2023-08-30T03:02:48;10.30;;;8.95;;
67889;SDS011;54685;52.082;5.426;2023-08-30T03:05:19;10.90;;;9.00;;
67889;SDS011;54685;52.082;5.426;2023-08-30T03:07:46;11.77;;;9.20;;
67889;SDS011;54685;52.082;5.426;2023-08-30T03:10:13;12.40;;;9.45;;
67889;SDS011;54685;52.082;5.426;2023-08-30T03:12:40;11.88;;;8.90;;
67889;SDS011;54685;52.082;5.426;2023-08-30T03:15:06;11.00;;;8.77;;
67889;SDS011;54685;52.082;5.426;2023-08-30T03:17:34;11.40;;;8.93;;
67889;SDS011;54685;52.082;5.426;2023-08-30T03:20:02;13.98;;;8.57;;
67889;SDS011;54685;52.082;5.426;2023-08-30T03:22:30;12.55;;;10.18;;
67889;SDS011;54685;52.082;5.426;2023-08-30T03:24:58;17.52;;;10.00;;
67889;SDS011;54685;52.082;5.426;2023-08-30T03:27:25;11.13;;;9.80;;
67889;SDS011;54685;52.082;5.426;2023-08-30T03:29:54;12.88;;;9.32;;
67889;SDS011;54685;52.082;5.426;2023-08-30T03:32:21;12.38;;;9.32;;
67889;SDS011;54685;52.082;5.426;2023-08-30T03:34:48;11.50;;;9.85;;
67889;SDS011;54685;52.082;5.426;2023-08-30T03:37:16;13.85;;;9.38;;
67889;SDS011;54685;52.082;5.426;2023-08-30T03:39:43;11.80;;;9.57;;
67889;SDS011;54685;52.082;5.426;2023-08-30T03:42:10;12.75;;;9.57;;
67889;SDS011;54685;52.082;5.426;2023-08-30T03:44:37;11.25;;;9.38;;
67889;SDS011;54685;52.082;5.426;2023-08-30T03:47:06;12.35;;;9.68;;
67889;SDS011;54685;52.082;5.426;2023-08-30T03:49:33;10.25;;;9.10;;
67889;SDS011;54685;52.082;5.426;2023-08-30T03:52:01;12.60;;;9.85;;
67889;SDS011;54685;52.082;5.426;2023-08-30T03:54:28;11.57;;;9.57;;
67889;SDS011;54685;52.082;5.426;2023-08-30T03:56:55;13.20;;;9.38;;
67889;SDS011;54685;52.082;5.426;2023-08-30T03:59:22;13.75;;;9.98;;
67889;SDS011;54685;52.082;5.426;2023-08-30T04:01:53;11.63;;;9.35;;
67889;SDS011;54685;52.082;5.426;2023-08-30T04:04:20;11.48;;;9.15;;
67889;SDS011;54685;52.082;5.426;2023-08-30T04:06:47;13.93;;;9.15;;
67889;SDS011;54685;52.082;5.426;2023-08-30T04:09:15;11.90;;;8.75;;
67889;SDS011;54685;52.082;5.426;2023-08-30T04:11:42;14.15;;;9.18;;
67889;SDS011;54685;52.082;5.426;2023-08-30T04:14:09;10.77;;;9.23;;
67889;SDS011;54685;52.082;5.426;2023-08-30T04:16:36;10.82;;;8.73;;
67889;SDS011;54685;52.082;5.426;2023-08-30T04:19:06;12.35;;;9.30;;
67889;SDS011;54685;52.082;5.426;2023-08-30T04:21:33;12.57;;;8.88;;
67889;SDS011;54685;52.082;5.426;2023-08-30T04:24:00;12.82;;;9.00;;
67889;SDS011;54685;52.082;5.426;2023-08-30T04:26:27;9.98;;;8.50;;
67889;SDS011;54685;52.082;5.426;2023-08-30T04:28:55;10.05;;;8.63;;
67889;SDS011;54685;52.082;5.426;2023-08-30T04:31:21;10.23;;;8.48;;
67889;SDS011;54685;52.082;5.426;2023-08-30T04:33:48;10.45;;;8.48;;
67889;SDS011;54685;52.082;5.426;2023-08-30T04:36:15;11.23;;;8.20;;
67889;SDS011;54685;52.082;5.426;2023-08-30T04:38:42;11.52;;;8.10;;
67889;SDS011;54685;52.082;5.426;2023-08-30T04:41:26;15.80;;;9.40;;
67889;SDS011;54685;52.082;5.426;2023-08-30T04:43:53;12.90;;;9.32;;
67889;SDS011;54685;52.082;5.426;2023-08-30T04:46:20;11.55;;;9.25;;
67889;SDS011;54685;52.082;5.426;2023-08-30T04:48:47;11.90;;;8.70;;
67889;SDS011;54685;52.082;5.426;2023-08-30T04:51:14;11.57;;;8.88;;
67889;SDS011;54685;52.082;5.426;2023-08-30T04:53:41;11.25;;;8.85;;
67889;SDS011;54685;52.082;5.426;2023-08-30T04:56:10;13.55;;;9.80;;
67889;SDS011;54685;52.082;5.426;2023-08-30T04:58:38;13.52;;;9.15;;
67889;SDS011;54685;52.082;5.426;2023-08-30T05:01:08;12.77;;;9.35;;
67889;SDS011;54685;52.082;5.426;2023-08-30T05:03:36;11.30;;;8.98;;
67889;SDS011;54685;52.082;5.426;2023-08-30T05:06:06;11.93;;;8.88;;
67889;SDS011;54685;52.082;5.426;2023-08-30T05:08:33;14.48;;;10.02;;
67889;SDS011;54685;52.082;5.426;2023-08-30T05:11:00;13.32;;;9.70;;
67889;SDS011;54685;52.082;5.426;2023-08-30T05:13:28;11.90;;;8.88;;
67889;SDS011;54685;52.082;5.426;2023-08-30T05:15:57;12.98;;;9.63;;
67889;SDS011;54685;52.082;5.426;2023-08-30T05:18:25;10.80;;;9.15;;
67889;SDS011;54685;52.082;5.426;2023-08-30T05:20:51;12.30;;;8.98;;
67889;SDS011;54685;52.082;5.426;2023-08-30T05:23:18;12.50;;;9.57;;
67889;SDS011;54685;52.082;5.426;2023-08-30T05:25:46;12.90;;;10.32;;
67889;SDS011;54685;52.082;5.426;2023-08-30T05:28:14;11.52;;;9.65;;
67889;SDS011;54685;52.082;5.426;2023-08-30T05:30:41;14.02;;;10.70;;
67889;SDS011;54685;52.082;5.426;2023-08-30T05:33:27;11.60;;;9.02;;
67889;SDS011;54685;52.082;5.426;2023-08-30T05:36:06;24.88;;;9.38;;
67889;SDS011;54685;52.082;5.426;2023-08-30T05:38:50;12.55;;;10.68;;
67889;SDS011;54685;52.082;5.426;2023-08-30T05:41:40;11.88;;;9.13;;
67889;SDS011;54685;52.082;5.426;2023-08-30T05:44:07;13.23;;;9.70;;
67889;SDS011;54685;52.082;5.426;2023-08-30T05:46:34;11.82;;;10.15;;
67889;SDS011;54685;52.082;5.426;2023-08-30T05:49:01;13.10;;;10.55;;
67889;SDS011;54685;52.082;5.426;2023-08-30T05:51:29;13.15;;;10.27;;
67889;SDS011;54685;52.082;5.426;2023-08-30T05:53:59;13.50;;;10.13;;
67889;SDS011;54685;52.082;5.426;2023-08-30T05:56:26;12.18;;;9.30;;
67889;SDS011;54685;52.082;5.426;2023-08-30T05:58:53;13.18;;;9.95;;
67889;SDS011;54685;52.082;5.426;2023-08-30T06:01:21;12.10;;;9.63;;
67889;SDS011;54685;52.082;5.426;2023-08-30T06:03:48;13.07;;;10.65;;
67889;SDS011;54685;52.082;5.426;2023-08-30T06:06:15;11.77;;;9.75;;
67889;SDS011;54685;52.082;5.426;2023-08-30T06:08:42;15.38;;;9.85;;
67889;SDS011;54685;52.082;5.426;2023-08-30T06:11:09;13.15;;;9.48;;
67889;SDS011;54685;52.082;5.426;2023-08-30T06:13:36;13.90;;;10.00;;
67889;SDS011;54685;52.082;5.426;2023-08-30T06:16:03;17.55;;;9.80;;
67889;SDS011;54685;52.082;5.426;2023-08-30T06:18:30;11.15;;;9.32;;
67889;SDS011;54685;52.082;5.426;2023-08-30T06:21:08;14.65;;;9.80;;
67889;SDS011;54685;52.082;5.426;2023-08-30T06:23:43;13.18;;;10.00;;
67889;SDS011;54685;52.082;5.426;2023-08-30T06:26:11;15.13;;;10.60;;
67889;SDS011;54685;52.082;5.426;2023-08-30T06:28:38;11.82;;;9.52;;
67889;SDS011;54685;52.082;5.426;2023-08-30T06:31:08;12.88;;;10.07;;
67889;SDS011;54685;52.082;5.426;2023-08-30T06:33:35;11.82;;;9.43;;
67889;SDS011;54685;52.082;5.426;2023-08-30T06:36:03;18.70;;;9.60;;
67889;SDS011;54685;52.082;5.426;2023-08-30T06:38:30;14.57;;;9.98;;
67889;SDS011;54685;52.082;5.426;2023-08-30T06:40:59;14.02;;;10.73;;
67889;SDS011;54685;52.082;5.426;2023-08-30T06:43:26;13.73;;;10.63;;
67889;SDS011;54685;52.082;5.426;2023-08-30T06:45:53;13.73;;;11.00;;
67889;SDS011;54685;52.082;5.426;2023-08-30T06:48:23;13.10;;;10.45;;
67889;SDS011;54685;52.082;5.426;2023-08-30T06:50:50;13.90;;;11.45;;
67889;SDS011;54685;52.082;5.426;2023-08-30T06:53:17;16.52;;;10.95;;
67889;SDS011;54685;52.082;5.426;2023-08-30T06:55:43;14.23;;;10.50;;
67889;SDS011;54685;52.082;5.426;2023-08-30T06:58:10;11.90;;;10.15;;
67889;SDS011;54685;52.082;5.426;2023-08-30T07:00:37;20.63;;;10.88;;
67889;SDS011;54685;52.082;5.426;2023-08-30T07:03:04;13.73;;;10.27;;
67889;SDS011;54685;52.082;5.426;2023-08-30T07:05:31;14.93;;;10.63;;
67889;SDS011;54685;52.082;5.426;2023-08-30T07:07:58;17.45;;;11.60;;
67889;SDS011;54685;52.082;5.426;2023-08-30T07:10:24;16.98;;;11.57;;
67889;SDS011;54685;52.082;5.426;2023-08-30T07:12:51;17.00;;;11.18;;
67889;SDS011;54685;52.082;5.426;2023-08-30T07:15:18;19.88;;;11.57;;
67889;SDS011;54685;52.082;5.426;2023-08-30T07:17:45;16.13;;;11.75;;
67889;SDS011;54685;52.082;5.426;2023-08-30T07:20:20;20.38;;;12.95;;
67889;SDS011;54685;52.082;5.426;2023-08-30T07:22:47;17.23;;;12.35;;
67889;SDS011;54685;52.082;5.426;2023-08-30T07:25:14;16.55;;;12.80;;
67889;SDS011;54685;52.082;5.426;2023-08-30T07:27:40;16.50;;;12.20;;
67889;SDS011;54685;52.082;5.426;2023-08-30T07:30:07;15.73;;;12.35;;
67889;SDS011;54685;52.082;5.426;2023-08-30T07:32:34;16.23;;;12.50;;
67889;SDS011;54685;52.082;5.426;2023-08-30T07:35:02;15.93;;;12.50;;
67889;SDS011;54685;52.082;5.426;2023-08-30T07:37:30;20.20;;;14.43;;
67889;SDS011;54685;52.082;5.426;2023-08-30T07:39:57;15.75;;;12.80;;
67889;SDS011;54685;52.082;5.426;2023-08-30T07:42:24;18.75;;;12.52;;
67889;SDS011;54685;52.082;5.426;2023-08-30T07:44:51;18.77;;;12.27;;
67889;SDS011;54685;52.082;5.426;2023-08-30T07:47:18;15.10;;;12.30;;
67889;SDS011;54685;52.082;5.426;2023-08-30T07:49:45;14.48;;;11.90;;
67889;SDS011;54685;52.082;5.426;2023-08-30T07:52:12;20.67;;;13.40;;
67889;SDS011;54685;52.082;5.426;2023-08-30T07:54:39;14.77;;;11.55;;
67889;SDS011;54685;52.082;5.426;2023-08-30T07:57:07;17.60;;;11.55;;
67889;SDS011;54685;52.082;5.426;2023-08-30T07:59:37;17.50;;;12.18;;
67889;SDS011;54685;52.082;5.426;2023-08-30T08:02:07;15.18;;;11.20;;
67889;SDS011;54685;52.082;5.426;2023-08-30T08:04:35;14.35;;;10.30;;
67889;SDS011;54685;52.082;5.426;2023-08-30T08:07:02;13.02;;;9.60;;
67889;SDS011;54685;52.082;5.426;2023-08-30T08:09:30;12.60;;;9.30;;
67889;SDS011;54685;52.082;5.426;2023-08-30T08:11:57;12.43;;;9.27;;
67889;SDS011;54685;52.082;5.426;2023-08-30T08:14:24;11.82;;;9.40;;
67889;SDS011;54685;52.082;5.426;2023-08-30T08:16:51;16.92;;;10.65;;
67889;SDS011;54685;52.082;5.426;2023-08-30T08:19:18;14.27;;;10.00;;
67889;SDS011;54685;52.082;5.426;2023-08-30T08:21:50;17.70;;;11.27;;
67889;SDS011;54685;52.082;5.426;2023-08-30T08:24:19;17.27;;;11.18;;
67889;SDS011;54685;52.082;5.426;2023-08-30T08:26:47;13.63;;;10.35;;
67889;SDS011;54685;52.082;5.426;2023-08-30T08:29:13;13.95;;;9.65;;
67889;SDS011;54685;52.082;5.426;2023-08-30T08:31:40;13.45;;;10.07;;
67889;SDS011;54685;52.082;5.426;2023-08-30T08:34:11;13.68;;;9.05;;
67889;SDS011;54685;52.082;5.426;2023-08-30T08:36:39;15.15;;;9.82;;
67889;SDS011;54685;52.082;5.426;2023-08-30T08:39:06;11.13;;;8.93;;
67889;SDS011;54685;52.082;5.426;2023-08-30T08:44:10;13.60;;;8.38;;
67889;SDS011;54685;52.082;5.426;2023-08-30T08:46:39;13.10;;;8.30;;
67889;SDS011;54685;52.082;5.426;2023-08-30T08:49:13;12.10;;;8.27;;
67889;SDS011;54685;52.082;5.426;2023-08-30T08:51:42;10.93;;;7.55;;
67889;SDS011;54685;52.082;5.426;2023-08-30T08:54:10;11.38;;;7.95;;
67889;SDS011;54685;52.082;5.426;2023-08-30T08:56:38;10.98;;;7.28;;
67889;SDS011;54685;52.082;5.426;2023-08-30T08:59:06;9.18;;;7.78;;
67889;SDS011;54685;52.082;5.426;2023-08-30T09:01:35;12.00;;;7.95;;
67889;SDS011;54685;52.082;5.426;2023-08-30T09:04:06;11.75;;;9.27;;
67889;SDS011;54685;52.082;5.426;2023-08-30T09:06:36;11.80;;;8.60;;
67889;SDS011;54685;52.082;5.426;2023-08-30T09:09:04;9.63;;;7.80;;
67889;SDS011;54685;52.082;5.426;2023-08-30T09:11:31;12.52;;;9.23;;
67889;SDS011;54685;52.082;5.426;2023-08-30T09:14:01;12.20;;;8.80;;
67889;SDS011;54685;52.082;5.426;2023-08-30T09:16:28;10.55;;;8.15;;
67889;SDS011;54685;52.082;5.426;2023-08-30T09:18:59;12.40;;;8.57;;
67889;SDS011;54685;52.082;5.426;2023-08-30T09:21:30;12.75;;;8.95;;
67889;SDS011;54685;52.082;5.426;2023-08-30T09:24:00;9.88;;;7.15;;
67889;SDS011;54685;52.082;5.426;2023-08-30T09:26:30;15.10;;;9.00;;
67889;SDS011;54685;52.082;5.426;2023-08-30T09:29:05;10.20;;;8.50;;
67889;SDS011;54685;52.082;5.426;2023-08-30T09:31:33;11.60;;;8.25;;
67889;SDS011;54685;52.082;5.426;2023-08-30T09:34:01;11.57;;;7.95;;
67889;SDS011;54685;52.082;5.426;2023-08-30T09:36:34;11.52;;;8.52;;
67889;SDS011;54685;52.082;5.426;2023-08-30T09:39:08;8.80;;;7.45;;
67889;SDS011;54685;52.082;5.426;2023-08-30T09:41:37;10.48;;;9.02;;
67889;SDS011;54685;52.082;5.426;2023-08-30T09:44:11;13.10;;;9.88;;
67889;SDS011;54685;52.082;5.426;2023-08-30T09:46:48;12.45;;;9.32;;
67889;SDS011;54685;52.082;5.426;2023-08-30T09:49:22;10.35;;;9.20;;
67889;SDS011;54685;52.082;5.426;2023-08-30T09:51:51;11.50;;;9.60;;
67889;SDS011;54685;52.082;5.426;2023-08-30T09:54:20;12.35;;;10.38;;
67889;SDS011;54685;52.082;5.426;2023-08-30T09:57:08;14.00;;;10.38;;
67889;SDS011;54685;52.082;5.426;2023-08-30T09:59:36;14.38;;;10.65;;
67889;SDS011;54685;52.082;5.426;2023-08-30T10:02:05;13.20;;;9.98;;
67889;SDS011;54685;52.082;5.426;2023-08-30T10:04:34;15.63;;;10.95;;
67889;SDS011;54685;52.082;5.426;2023-08-30T10:07:04;15.43;;;11.27;;
67889;SDS011;54685;52.082;5.426;2023-08-30T10:09:33;12.18;;;10.88;;
67889;SDS011;54685;52.082;5.426;2023-08-30T10:12:00;13.27;;;10.50;;
67889;SDS011;54685;52.082;5.426;2023-08-30T10:14:29;12.35;;;10.32;;
67889;SDS011;54685;52.082;5.426;2023-08-30T10:17:01;12.65;;;11.10;;
67889;SDS011;54685;52.082;5.426;2023-08-30T10:19:33;14.35;;;12.68;;
67889;SDS011;54685;52.082;5.426;2023-08-30T10:22:04;14.90;;;13.35;;
67889;SDS011;54685;52.082;5.426;2023-08-30T10:24:42;16.38;;;13.82;;
67889;SDS011;54685;52.082;5.426;2023-08-30T10:27:38;12.63;;;11.25;;
67889;SDS011;54685;52.082;5.426;2023-08-30T10:30:09;13.40;;;12.15;;
67889;SDS011;54685;52.082;5.426;2023-08-30T10:32:40;12.38;;;10.80;;
67889;SDS011;54685;52.082;5.426;2023-08-30T10:35:12;12.68;;;10.32;;
67889;SDS011;54685;52.082;5.426;2023-08-30T10:37:40;9.30;;;8.40;;
67889;SDS011;54685;52.082;5.426;2023-08-30T10:40:08;9.10;;;7.57;;
67889;SDS011;54685;52.082;5.426;2023-08-30T10:42:35;8.02;;;7.22;;
67889;SDS011;54685;52.082;5.426;2023-08-30T10:45:04;7.10;;;6.50;;
67889;SDS011;54685;52.082;5.426;2023-08-30T10:47:45;7.93;;;5.22;;
67889;SDS011;54685;52.082;5.426;2023-08-30T10:50:12;5.18;;;4.70;;
67889;SDS011;54685;52.082;5.426;2023-08-30T10:52:39;5.55;;;4.30;;
67889;SDS011;54685;52.082;5.426;2023-08-30T10:57:37;4.95;;;4.03;;
67889;SDS011;54685;52.082;5.426;2023-08-30T11:02:38;6.93;;;3.60;;
67889;SDS011;54685;52.082;5.426;2023-08-30T11:05:12;6.38;;;3.42;;
67889;SDS011;54685;52.082;5.426;2023-08-30T11:07:39;4.00;;;2.88;;
67889;SDS011;54685;52.082;5.426;2023-08-30T11:10:06;6.32;;;2.88;;
67889;SDS011;54685;52.082;5.426;2023-08-30T11:12:34;5.57;;;2.88;;
67889;SDS011;54685;52.082;5.426;2023-08-30T11:15:02;7.57;;;3.08;;
67889;SDS011;54685;52.082;5.426;2023-08-30T11:17:29;6.00;;;2.35;;
67889;SDS011;54685;52.082;5.426;2023-08-30T11:19:57;3.80;;;2.13;;
67889;SDS011;54685;52.082;5.426;2023-08-30T11:22:31;6.05;;;2.10;;
67889;SDS011;54685;52.082;5.426;2023-08-30T11:24:58;4.57;;;2.42;;
67889;SDS011;54685;52.082;5.426;2023-08-30T11:27:25;5.75;;;2.45;;
67889;SDS011;54685;52.082;5.426;2023-08-30T11:29:52;6.78;;;2.70;;
67889;SDS011;54685;52.082;5.426;2023-08-30T11:32:19;4.90;;;2.28;;
67889;SDS011;54685;52.082;5.426;2023-08-30T11:34:55;5.43;;;2.28;;
67889;SDS011;54685;52.082;5.426;2023-08-30T11:37:23;5.85;;;2.13;;
67889;SDS011;54685;52.082;5.426;2023-08-30T11:39:57;4.65;;;2.33;;
67889;SDS011;54685;52.082;5.426;2023-08-30T11:42:25;10.68;;;2.78;;
67889;SDS011;54685;52.082;5.426;2023-08-30T11:44:52;9.65;;;2.88;;
67889;SDS011;54685;52.082;5.426;2023-08-30T11:47:23;9.02;;;2.70;;
67889;SDS011;54685;52.082;5.426;2023-08-30T11:49:54;7.55;;;2.70;;
67889;SDS011;54685;52.082;5.426;2023-08-30T11:52:23;7.68;;;2.50;;
67889;SDS011;54685;52.082;5.426;2023-08-30T11:54:51;8.65;;;2.97;;
67889;SDS011;54685;52.082;5.426;2023-08-30T11:57:19;9.18;;;2.60;;
67889;SDS011;54685;52.082;5.426;2023-08-30T11:59:47;8.20;;;2.38;;
67889;SDS011;54685;52.082;5.426;2023-08-30T12:02:16;7.68;;;2.70;;
67889;SDS011;54685;52.082;5.426;2023-08-30T12:04:45;12.93;;;2.80;;
67889;SDS011;54685;52.082;5.426;2023-08-30T12:07:23;7.97;;;2.60;;
67889;SDS011;54685;52.082;5.426;2023-08-30T12:09:50;8.98;;;2.85;;
67889;SDS011;54685;52.082;5.426;2023-08-30T12:12:17;7.95;;;3.00;;
67889;SDS011;54685;52.082;5.426;2023-08-30T12:14:44;6.38;;;2.38;;
67889;SDS011;54685;52.082;5.426;2023-08-30T12:17:11;10.93;;;2.67;;
67889;SDS011;54685;52.082;5.426;2023-08-30T12:19:39;9.50;;;3.10;;
67889;SDS011;54685;52.082;5.426;2023-08-30T12:22:09;12.63;;;2.65;;
67889;SDS011;54685;52.082;5.426;2023-08-30T12:27:12;10.00;;;2.30;;
67889;SDS011;54685;52.082;5.426;2023-08-30T12:29:40;7.28;;;2.33;;
67889;SDS011;54685;52.082;5.426;2023-08-30T12:32:07;9.70;;;2.67;;
67889;SDS011;54685;52.082;5.426;2023-08-30T12:34:34;9.15;;;2.20;;
67889;SDS011;54685;52.082;5.426;2023-08-30T12:37:01;6.97;;;2.30;;
67889;SDS011;54685;52.082;5.426;2023-08-30T12:39:31;9.00;;;2.17;;
67889;SDS011;54685;52.082;5.426;2023-08-30T12:41:58;13.23;;;2.50;;
67889;SDS011;54685;52.082;5.426;2023-08-30T12:44:25;9.57;;;2.17;;
67889;SDS011;54685;52.082;5.426;2023-08-30T12:46:52;9.02;;;2.50;;
67889;SDS011;54685;52.082;5.426;2023-08-30T12:49:19;8.73;;;2.10;;
67889;SDS011;54685;52.082;5.426;2023-08-30T12:51:47;8.38;;;2.20;;
67889;SDS011;54685;52.082;5.426;2023-08-30T12:54:14;6.88;;;1.85;;
67889;SDS011;54685;52.082;5.426;2023-08-30T12:56:41;11.63;;;2.17;;
67889;SDS011;54685;52.082;5.426;2023-08-30T12:59:07;8.00;;;1.92;;
67889;SDS011;54685;52.082;5.426;2023-08-30T13:01:34;7.18;;;1.95;;
67889;SDS011;54685;52.082;5.426;2023-08-30T13:04:06;10.05;;;2.22;;
67889;SDS011;54685;52.082;5.426;2023-08-30T13:06:34;10.10;;;2.15;;
67889;SDS011;54685;52.082;5.426;2023-08-30T13:09:01;9.60;;;2.13;;
67889;SDS011;54685;52.082;5.426;2023-08-30T13:11:29;8.07;;;2.17;;
67889;SDS011;54685;52.082;5.426;2023-08-30T13:13:58;11.88;;;2.38;;
67889;SDS011;54685;52.082;5.426;2023-08-30T13:16:25;9.15;;;1.70;;
67889;SDS011;54685;52.082;5.426;2023-08-30T13:18:52;5.93;;;2.42;;
67889;SDS011;54685;52.082;5.426;2023-08-30T13:21:19;9.60;;;2.15;;
67889;SDS011;54685;52.082;5.426;2023-08-30T13:23:56;10.30;;;2.53;;
67889;SDS011;54685;52.082;5.426;2023-08-30T13:26:23;8.93;;;2.30;;
67889;SDS011;54685;52.082;5.426;2023-08-30T13:28:52;7.13;;;1.95;;
67889;SDS011;54685;52.082;5.426;2023-08-30T13:31:19;9.73;;;2.33;;
67889;SDS011;54685;52.082;5.426;2023-08-30T13:33:46;8.38;;;2.47;;
67889;SDS011;54685;52.082;5.426;2023-08-30T13:36:13;7.57;;;1.83;;
67889;SDS011;54685;52.082;5.426;2023-08-30T13:38:40;7.15;;;1.83;;
67889;SDS011;54685;52.082;5.426;2023-08-30T13:41:06;9.68;;;2.58;;
67889;SDS011;54685;52.082;5.426;2023-08-30T13:43:34;11.73;;;2.40;;
67889;SDS011;54685;52.082;5.426;2023-08-30T13:46:01;5.75;;;2.03;;
67889;SDS011;54685;52.082;5.426;2023-08-30T13:48:28;8.88;;;2.15;;
67889;SDS011;54685;52.082;5.426;2023-08-30T13:50:55;8.90;;;2.15;;
67889;SDS011;54685;52.082;5.426;2023-08-30T13:53:22;7.40;;;2.20;;
67889;SDS011;54685;52.082;5.426;2023-08-30T13:55:51;10.13;;;1.98;;
67889;SDS011;54685;52.082;5.426;2023-08-30T13:58:17;7.45;;;2.03;;
67889;SDS011;54685;52.082;5.426;2023-08-30T14:00:44;6.60;;;2.05;;
67889;SDS011;54685;52.082;5.426;2023-08-30T14:03:12;10.55;;;2.40;;
67889;SDS011;54685;52.082;5.426;2023-08-30T14:05:39;6.20;;;1.80;;
67889;SDS011;54685;52.082;5.426;2023-08-30T14:08:06;7.30;;;1.73;;
67889;SDS011;54685;52.082;5.426;2023-08-30T14:10:34;9.00;;;1.83;;
67889;SDS011;54685;52.082;5.426;2023-08-30T14:13:01;7.25;;;1.80;;
67889;SDS011;54685;52.082;5.426;2023-08-30T14:15:28;7.03;;;1.70;;
67889;SDS011;54685;52.082;5.426;2023-08-30T14:17:56;5.63;;;1.48;;
67889;SDS011;54685;52.082;5.426;2023-08-30T14:20:23;6.50;;;1.70;;
67889;SDS011;54685;52.082;5.426;2023-08-30T14:26:03;6.63;;;1.42;;
67889;SDS011;54685;52.082;5.426;2023-08-30T14:28:39;8.77;;;2.15;;
67889;SDS011;54685;52.082;5.426;2023-08-30T14:31:09;7.13;;;1.70;;
67889;SDS011;54685;52.082;5.426;2023-08-30T14:33:37;7.15;;;1.73;;
67889;SDS011;54685;52.082;5.426;2023-08-30T14:36:10;4.75;;;1.40;;
67889;SDS011;54685;52.082;5.426;2023-08-30T14:38:38;6.20;;;1.50;;
67889;SDS011;54685;52.082;5.426;2023-08-30T14:41:05;3.95;;;1.67;;
67889;SDS011;54685;52.082;5.426;2023-08-30T14:43:32;4.68;;;1.60;;
67889;SDS011;54685;52.082;5.426;2023-08-30T14:45:59;2.30;;;1.20;;
67889;SDS011;54685;52.082;5.426;2023-08-30T14:48:36;7.75;;;1.67;;
67889;SDS011;54685;52.082;5.426;2023-08-30T14:51:04;5.78;;;1.50;;
67889;SDS011;54685;52.082;5.426;2023-08-30T14:53:32;7.78;;;1.60;;
67889;SDS011;54685;52.082;5.426;2023-08-30T14:55:59;4.53;;;1.70;;
67889;SDS011;54685;52.082;5.426;2023-08-30T14:58:26;7.55;;;1.70;;
67889;SDS011;54685;52.082;5.426;2023-08-30T15:00:54;5.70;;;1.60;;
67889;SDS011;54685;52.082;5.426;2023-08-30T15:03:21;7.55;;;1.88;;